^^
Station Historical Data
Daily Summary for April 8, 2017 Units:  English    Metric   Both
« Previous Day
Next Day »
Daily Weekly Monthly Yearly Custom
  High: Low: Average:
Temperature: 59.1 °F 35.1 °F 46.3 °F
Dew Point: 27.6 °F 15.8 °F 22.6 °F
Humidity: 70 % 20 % 43 %
Wind Speed: 18.5 mph 0.0 mph 7.4 mph
Wind Gust: 26.5 mph - -
Wind:- - WNW
Pressure: 30.05 in 29.79 in -
Precipitation: 0.00 in    
Historical Graphs
 
 
Tabular Data for April 8, 2017
Time Temperature Dew Point Pressure Wind Wind Speed Wind Gust Humidity Rainfall Rate (Hourly) solar Conditions
00:02 38.7 °F 27.6 °F 29.79 in NW 6.3 mph 10.4 mph 64 % 0.00 in 0.0 W/m2 RA
00:07 38.7 °F 27.6 °F 29.79 in NW 8.9 mph 15.0 mph 64 % 0.00 in 0.0 W/m2 RA
00:12 38.7 °F 27.6 °F 29.79 in WNW 10.5 mph 15.0 mph 64 % 0.00 in 0.0 W/m2 CLR
00:17 38.7 °F 27.6 °F 29.79 in WNW 10.8 mph 18.4 mph 64 % 0.00 in 0.0 W/m2 CLR
00:22 38.7 °F 27.2 °F 29.79 in WNW 6.5 mph 11.0 mph 63 % 0.00 in 0.0 W/m2 CLR
00:28 38.7 °F 27.2 °F 29.79 in WNW 8.7 mph 11.5 mph 63 % 0.00 in 0.0 W/m2 CLR
00:33 38.8 °F 27.3 °F 29.79 in NW 9.2 mph 12.7 mph 63 % 0.00 in 0.0 W/m2 CLR
00:38 38.8 °F 26.9 °F 29.79 in West 7.6 mph 13.8 mph 62 % 0.00 in 0.0 W/m2 CLR
00:40 38.9 °F 27.4 °F 29.79 in West 5.5 mph 14.0 mph 63 % 0.00 in 0.0 W/m2 CLR
00:45 38.9 °F 27.0 °F 29.79 in WNW 9.2 mph 15.0 mph 62 % 0.00 in 0.0 W/m2 CLR
00:50 39.0 °F 27.1 °F 29.80 in WNW 7.9 mph 11.5 mph 62 % 0.00 in 0.0 W/m2 CLR
00:55 39.0 °F 26.7 °F 29.80 in NW 9.4 mph 13.8 mph 61 % 0.00 in 0.0 W/m2 CLR
01:00 39.1 °F 26.8 °F 29.80 in NW 10.6 mph 17.3 mph 61 % 0.00 in 0.0 W/m2 CLR
01:05 39.1 °F 26.8 °F 29.80 in West 11.3 mph 12.7 mph 61 % 0.00 in 0.0 W/m2 CLR
01:10 39.2 °F 26.9 °F 29.80 in NW 12.6 mph 17.0 mph 61 % 0.00 in 0.0 W/m2 CLR
01:15 39.2 °F 26.5 °F 29.80 in West 12.2 mph 18.4 mph 60 % 0.00 in 0.0 W/m2 CLR
01:20 39.2 °F 26.5 °F 29.79 in WNW 9.9 mph 15.0 mph 60 % 0.00 in 0.0 W/m2 CLR
01:25 39.2 °F 26.5 °F 29.80 in WNW 7.2 mph 12.0 mph 60 % 0.00 in 0.0 W/m2 CLR
01:30 39.3 °F 26.6 °F 29.80 in NNW 10.0 mph 16.1 mph 60 % 0.00 in 0.0 W/m2 CLR
01:35 39.3 °F 26.2 °F 29.80 in WNW 11.1 mph 15.0 mph 59 % 0.00 in 0.0 W/m2 CLR
01:40 39.3 °F 25.7 °F 29.80 in WNW 8.7 mph 16.1 mph 58 % 0.00 in 0.0 W/m2 CLR
01:45 39.3 °F 25.7 °F 29.80 in WNW 6.2 mph 15.0 mph 58 % 0.00 in 0.0 W/m2 CLR
01:50 39.3 °F 25.3 °F 29.80 in WNW 8.2 mph 12.7 mph 57 % 0.00 in 0.0 W/m2 CLR
01:55 39.3 °F 24.9 °F 29.80 in NW 9.3 mph 16.1 mph 56 % 0.00 in 0.0 W/m2 CLR
02:00 39.2 °F 24.8 °F 29.80 in NW 10.3 mph 19.0 mph 56 % 0.00 in 0.0 W/m2 CLR
02:05 39.2 °F 24.8 °F 29.80 in NNW 13.8 mph 18.4 mph 56 % 0.00 in 0.0 W/m2 CLR
02:10 39.1 °F 24.7 °F 29.80 in WNW 13.3 mph 19.6 mph 56 % 0.00 in 0.0 W/m2 CLR
02:15 39.1 °F 24.7 °F 29.80 in WNW 11.3 mph 11.5 mph 56 % 0.00 in 0.0 W/m2 CLR
02:20 39.0 °F 24.6 °F 29.79 in WNW 10.5 mph 16.0 mph 56 % 0.00 in 0.0 W/m2 CLR
02:26 38.9 °F 24.1 °F 29.80 in WNW 7.3 mph 13.8 mph 55 % 0.00 in 0.0 W/m2 CLR
02:31 38.9 °F 24.1 °F 29.80 in WNW 8.4 mph 17.3 mph 55 % 0.00 in 0.0 W/m2 CLR
02:36 38.9 °F 24.1 °F 29.80 in NW 7.2 mph 14.0 mph 55 % 0.00 in 0.0 W/m2 CLR
02:41 38.8 °F 24.0 °F 29.80 in WNW 8.7 mph 11.5 mph 55 % 0.00 in 0.0 W/m2 CLR
02:46 38.8 °F 24.4 °F 29.80 in WNW 7.3 mph 11.5 mph 56 % 0.00 in 0.0 W/m2 CLR
02:51 38.7 °F 24.3 °F 29.80 in WSW 3.0 mph 8.0 mph 56 % 0.00 in 0.0 W/m2 CLR
02:56 38.5 °F 24.6 °F 29.80 in WNW 3.1 mph 8.1 mph 57 % 0.00 in 0.0 W/m2 CLR
03:01 38.4 °F 24.5 °F 29.80 in WSW 7.0 mph 15.0 mph 57 % 0.00 in 0.0 W/m2 CLR
03:06 38.3 °F 24.8 °F 29.80 in WSW 3.6 mph 8.1 mph 58 % 0.00 in 0.0 W/m2 CLR
03:11 38.1 °F 24.6 °F 29.80 in West 4.0 mph 8.1 mph 58 % 0.00 in 0.0 W/m2 CLR
03:16 38.0 °F 24.5 °F 29.80 in West 7.0 mph 10.4 mph 58 % 0.00 in 0.0 W/m2 CLR
03:21 37.8 °F 24.3 °F 29.80 in WNW 7.0 mph 11.5 mph 58 % 0.00 in 0.0 W/m2 CLR
03:26 37.7 °F 24.2 °F 29.80 in West 7.4 mph 11.5 mph 58 % 0.00 in 0.0 W/m2 CLR
03:31 37.6 °F 24.1 °F 29.80 in West 5.8 mph 11.0 mph 58 % 0.00 in 0.0 W/m2 CLR
03:36 37.5 °F 24.5 °F 29.81 in West 7.5 mph 10.4 mph 59 % 0.00 in 0.0 W/m2 CLR
03:41 37.4 °F 24.4 °F 29.80 in WNW 7.5 mph 11.5 mph 59 % 0.00 in 0.0 W/m2 CLR
03:46 37.4 °F 24.8 °F 29.81 in WSW 4.4 mph 8.0 mph 60 % 0.00 in 0.0 W/m2 CLR
03:51 37.3 °F 24.7 °F 29.81 in West 4.6 mph 9.2 mph 60 % 0.00 in 0.0 W/m2 CLR
03:56 37.3 °F 24.7 °F 29.81 in WNW 5.2 mph 10.4 mph 60 % 0.00 in 0.0 W/m2 CLR
04:01 37.4 °F 24.8 °F 29.81 in West 4.0 mph 6.9 mph 60 % 0.00 in 0.0 W/m2 CLR
04:06 37.2 °F 25.0 °F 29.81 in West 2.3 mph 4.6 mph 61 % 0.00 in 0.0 W/m2 CLR
04:11 37.1 °F 24.9 °F 29.81 in West 4.3 mph 6.0 mph 61 % 0.00 in 0.0 W/m2 CLR
04:16 37.0 °F 24.8 °F 29.81 in West 2.6 mph 5.8 mph 61 % 0.00 in 0.0 W/m2 CLR
04:21 36.8 °F 25.0 °F 29.81 in West 3.8 mph 5.8 mph 62 % 0.00 in 0.0 W/m2 CLR
04:26 36.5 °F 25.1 °F 29.81 in West 3.8 mph 5.8 mph 63 % 0.00 in 0.0 W/m2 CLR
04:31 36.4 °F 25.4 °F 29.81 in West 1.4 mph 3.5 mph 64 % 0.00 in 0.0 W/m2 CLR
04:36 36.3 °F 25.3 °F 29.81 in West 2.2 mph 4.6 mph 64 % 0.00 in 0.0 W/m2 CLR
04:41 36.2 °F 25.6 °F 29.81 in West 1.6 mph 5.8 mph 65 % 0.00 in 0.0 W/m2 CLR
04:46 36.1 °F 25.8 °F 29.81 in West 4.9 mph 8.1 mph 66 % 0.00 in 0.0 W/m2 CLR
04:51 36.0 °F 26.1 °F 29.81 in West 5.2 mph 9.2 mph 67 % 0.00 in 0.0 W/m2 CLR
04:56 36.0 °F 26.1 °F 29.81 in WNW 3.7 mph 4.6 mph 67 % 0.00 in 0.0 W/m2 CLR
05:01 35.9 °F 26.4 °F 29.82 in West 3.2 mph 6.9 mph 68 % 0.00 in 0.0 W/m2 CLR
05:06 35.9 °F 26.4 °F 29.82 in WSW 3.4 mph 8.1 mph 68 % 0.00 in 0.0 W/m2 CLR
05:11 35.8 °F 26.3 °F 29.82 in West 1.9 mph 6.9 mph 68 % 0.00 in 0.0 W/m2 CLR
05:16 35.7 °F 26.5 °F 29.82 in West 0.7 mph 3.0 mph 69 % 0.00 in 0.0 W/m2 CLR
05:21 35.5 °F 26.3 °F 29.82 in West 2.0 mph 6.9 mph 69 % 0.00 in 0.0 W/m2 CLR
05:26 35.5 °F 26.3 °F 29.82 in West 1.9 mph 5.8 mph 69 % 0.00 in 0.0 W/m2 CLR
05:31 35.4 °F 26.6 °F 29.82 in West 2.9 mph 3.5 mph 70 % 0.00 in 0.0 W/m2 CLR
05:36 35.3 °F 26.5 °F 29.83 in West 2.1 mph 6.0 mph 70 % 0.00 in 0.0 W/m2 CLR
05:41 35.3 °F 26.5 °F 29.83 in West 1.7 mph 8.1 mph 70 % 0.00 in 0.0 W/m2 CLR
05:46 35.3 °F 26.5 °F 29.83 in WSW 2.7 mph 3.5 mph 70 % 0.00 in 0.0 W/m2 CLR
05:51 35.2 °F 26.4 °F 29.83 in West 3.6 mph 5.8 mph 70 % 0.00 in 0.0 W/m2 CLR
05:52 35.2 °F 26.4 °F 29.83 in West 3.6 mph 6.9 mph 70 % 0.00 in 0.0 W/m2 CLR
05:57 35.1 °F 26.3 °F 29.84 in West 3.9 mph 7.0 mph 70 % 0.00 in 0.0 W/m2 CLR
06:02 35.1 °F 26.3 °F 29.84 in WSW 1.9 mph 6.9 mph 70 % 0.00 in 0.0 W/m2 CLR
06:07 35.1 °F 26.3 °F 29.84 in West 7.5 mph 11.5 mph 70 % 0.00 in 0.0 W/m2 CLR
06:12 35.1 °F 26.3 °F 29.84 in WSW 3.4 mph 9.0 mph 70 % 0.00 in 0.0 W/m2 CLR
06:17 35.1 °F 26.3 °F 29.84 in WNW 5.1 mph 8.1 mph 70 % 0.00 in 0.0 W/m2 CLR
06:22 35.1 °F 26.3 °F 29.85 in WNW 3.8 mph 8.1 mph 70 % 0.00 in 0.0 W/m2 CLR
06:27 35.1 °F 26.3 °F 29.85 in West 4.1 mph 8.1 mph 70 % 0.00 in 0.0 W/m2 CLR
06:32 35.1 °F 26.3 °F 29.85 in WNW 3.0 mph 6.9 mph 70 % 0.00 in 0.0 W/m2 CLR
06:37 35.1 °F 26.3 °F 29.85 in West 4.8 mph 8.1 mph 70 % 0.00 in 5.0 W/m2 CLR
06:42 35.1 °F 25.9 °F 29.85 in WNW 5.0 mph 8.1 mph 69 % 0.00 in 7.0 W/m2 CLR
06:47 35.2 °F 26.0 °F 29.85 in West 3.4 mph 8.0 mph 69 % 0.00 in 9.0 W/m2 CLR
06:52 35.2 °F 26.0 °F 29.86 in West 4.1 mph 9.2 mph 69 % 0.00 in 11.0 W/m2 CLR
06:57 35.2 °F 26.0 °F 29.86 in West 2.9 mph 8.1 mph 69 % 0.00 in 12.0 W/m2 CLR
07:02 35.3 °F 25.8 °F 29.86 in West 5.2 mph 9.2 mph 68 % 0.00 in 14.0 W/m2 CLR
07:07 35.4 °F 25.9 °F 29.87 in West 4.0 mph 6.9 mph 68 % 0.00 in 18.0 W/m2 CLR
07:12 35.6 °F 26.1 °F 29.87 in West 2.8 mph 8.1 mph 68 % 0.00 in 21.0 W/m2 CLR
07:17 35.8 °F 25.9 °F 29.87 in WSW 5.0 mph 8.1 mph 67 % 0.00 in 30.0 W/m2 CLR
07:22 36.1 °F 25.8 °F 29.88 in WNW 4.3 mph 7.0 mph 66 % 0.00 in 33.0 W/m2 SCT
07:27 36.3 °F 26.0 °F 29.88 in WSW 2.8 mph 9.0 mph 66 % 0.00 in 53.0 W/m2 SCT
07:32 36.6 °F 25.9 °F 29.88 in West 0.8 mph 6.9 mph 65 % 0.00 in 58.0 W/m2 SCT
07:37 36.7 °F 26.0 °F 29.88 in WNW 6.1 mph 10.4 mph 65 % 0.00 in 49.0 W/m2 SCT
07:42 37.0 °F 25.9 °F 29.88 in West 2.0 mph 11.5 mph 64 % 0.00 in 70.0 W/m2 FEW
07:47 37.2 °F 25.8 °F 29.88 in WSW 1.8 mph 10.4 mph 63 % 0.00 in 100.0 W/m2 CLR
07:52 37.3 °F 25.5 °F 29.89 in West 8.6 mph 15.0 mph 62 % 0.00 in 72.0 W/m2 BKN
07:57 37.5 °F 25.7 °F 29.89 in West 8.0 mph 12.7 mph 62 % 0.00 in 98.0 W/m2 FEW
08:02 37.7 °F 25.8 °F 29.89 in West 8.1 mph 14.0 mph 62 % 0.00 in 118.0 W/m2 BKN
08:07 38.1 °F 26.2 °F 29.89 in West 4.0 mph 6.9 mph 62 % 0.00 in 144.0 W/m2 CLR
08:12 38.6 °F 25.9 °F 29.89 in WNW 7.9 mph 10.4 mph 60 % 0.00 in 98.0 W/m2 BKN
08:17 38.9 °F 25.4 °F 29.89 in NW 8.7 mph 12.7 mph 58 % 0.00 in 123.0 W/m2 SCT
08:22 39.2 °F 25.2 °F 29.89 in WNW 10.0 mph 11.5 mph 57 % 0.00 in 183.0 W/m2 SCT
08:27 39.5 °F 25.1 °F 29.89 in WNW 3.3 mph 11.5 mph 56 % 0.00 in 214.0 W/m2 FEW
08:32 40.0 °F 25.1 °F 29.89 in NW 5.8 mph 11.5 mph 55 % 0.00 in 299.0 W/m2 CLR
08:37 40.3 °F 24.5 °F 29.90 in WNW 9.2 mph 19.6 mph 53 % 0.00 in 309.0 W/m2 CLR
08:42 40.1 °F 23.9 °F 29.90 in WNW 10.4 mph 19.6 mph 52 % 0.00 in 415.0 W/m2 CLR
08:47 40.6 °F 24.3 °F 29.90 in West 9.3 mph 16.1 mph 52 % 0.00 in 431.0 W/m2 CLR
08:52 40.8 °F 23.6 °F 29.90 in WNW 14.6 mph 18.4 mph 50 % 0.00 in 450.0 W/m2 CLR
08:57 41.5 °F 24.2 °F 29.90 in NW 11.6 mph 19.6 mph 50 % 0.00 in 469.0 W/m2 CLR
09:03 42.1 °F 24.3 °F 29.90 in West 10.8 mph 17.3 mph 49 % 0.00 in 485.0 W/m2 CLR
09:08 41.9 °F 23.1 °F 29.90 in West 12.9 mph 16.1 mph 47 % 0.00 in 503.0 W/m2 CLR
09:13 42.2 °F 22.4 °F 29.90 in WNW 12.0 mph 19.6 mph 45 % 0.00 in 519.0 W/m2 CLR
09:18 43.0 °F 23.6 °F 29.90 in WNW 8.6 mph 12.7 mph 46 % 0.00 in 534.0 W/m2 CLR
09:23 43.0 °F 22.5 °F 29.90 in West 14.6 mph 23.0 mph 44 % 0.00 in 552.0 W/m2 CLR
09:28 43.3 °F 22.8 °F 29.90 in NW 8.9 mph 16.0 mph 44 % 0.00 in 570.0 W/m2 CLR
09:33 43.5 °F 21.3 °F 29.90 in WNW 12.6 mph 20.7 mph 41 % 0.00 in 589.0 W/m2 CLR
09:38 43.8 °F 21.0 °F 29.90 in NNW 12.1 mph 18.4 mph 40 % 0.00 in 603.0 W/m2 CLR
09:43 44.3 °F 22.1 °F 29.90 in WNW 16.5 mph 23.0 mph 41 % 0.00 in 622.0 W/m2 CLR
09:48 44.1 °F 21.3 °F 29.90 in WNW 15.6 mph 20.7 mph 40 % 0.00 in 635.0 W/m2 CLR
09:53 44.4 °F 21.6 °F 29.90 in WNW 8.7 mph 19.6 mph 40 % 0.00 in 650.0 W/m2 CLR
09:58 44.4 °F 21.6 °F 29.90 in WNW 10.6 mph 13.8 mph 40 % 0.00 in 666.0 W/m2 CLR
10:03 44.6 °F 21.1 °F 29.91 in WNW 13.5 mph 20.7 mph 39 % 0.00 in 679.0 W/m2 CLR
10:08 44.5 °F 21.0 °F 29.91 in NNW 12.7 mph 19.0 mph 39 % 0.00 in 694.0 W/m2 CLR
10:09 44.8 °F 21.9 °F 29.91 in NW 11.0 mph 19.6 mph 40 % 0.00 in 696.0 W/m2 CLR
10:14 45.9 °F 22.3 °F 29.91 in WNW 11.4 mph 17.3 mph 39 % 0.00 in 710.0 W/m2 CLR
10:19 46.4 °F 21.5 °F 29.91 in NW 10.9 mph 16.1 mph 37 % 0.00 in 726.0 W/m2 CLR
10:24 45.8 °F 21.6 °F 29.91 in WNW 12.2 mph 17.3 mph 38 % 0.00 in 737.0 W/m2 CLR
10:29 46.3 °F 21.4 °F 29.91 in West 9.4 mph 13.8 mph 37 % 0.00 in 749.0 W/m2 CLR
10:34 46.7 °F 22.4 °F 29.91 in NW 5.9 mph 11.5 mph 38 % 0.00 in 761.0 W/m2 CLR
10:39 47.4 °F 22.4 °F 29.91 in NW 10.9 mph 20.7 mph 37 % 0.00 in 775.0 W/m2 CLR
10:44 47.3 °F 22.3 °F 29.91 in NNW 8.5 mph 13.8 mph 37 % 0.00 in 786.0 W/m2 CLR
10:49 47.6 °F 21.9 °F 29.92 in WNW 13.0 mph 18.4 mph 36 % 0.00 in 798.0 W/m2 CLR
10:54 47.6 °F 22.6 °F 29.92 in WSW 12.5 mph 17.3 mph 37 % 0.00 in 810.0 W/m2 CLR
10:59 47.9 °F 23.5 °F 29.92 in WNW 10.3 mph 13.8 mph 38 % 0.00 in 817.0 W/m2 CLR
11:04 48.6 °F 24.1 °F 29.92 in NW 8.9 mph 17.0 mph 38 % 0.00 in 830.0 W/m2 CLR
11:09 48.0 °F 20.9 °F 29.92 in West 13.2 mph 19.6 mph 34 % 0.00 in 840.0 W/m2 CLR
11:14 48.3 °F 22.5 °F 29.92 in West 11.6 mph 19.6 mph 36 % 0.00 in 851.0 W/m2 CLR
11:19 48.1 °F 21.7 °F 29.92 in WNW 17.5 mph 20.7 mph 35 % 0.00 in 858.0 W/m2 CLR
11:24 48.7 °F 22.2 °F 29.91 in North 15.4 mph 20.0 mph 35 % 0.00 in 868.0 W/m2 CLR
11:29 48.9 °F 23.1 °F 29.91 in WNW 16.1 mph 21.9 mph 36 % 0.00 in 875.0 W/m2 CLR
11:34 48.9 °F 21.0 °F 29.91 in West 12.7 mph 19.6 mph 33 % 0.00 in 882.0 W/m2 CLR
11:39 49.0 °F 21.8 °F 29.92 in WNW 15.2 mph 23.0 mph 34 % 0.00 in 889.0 W/m2 CLR
11:44 49.8 °F 23.2 °F 29.92 in NW 11.5 mph 20.7 mph 35 % 0.00 in 900.0 W/m2 CLR
11:49 50.3 °F 23.0 °F 29.92 in NW 12.0 mph 18.4 mph 34 % 0.00 in 905.0 W/m2 CLR
11:54 49.8 °F 21.1 °F 29.92 in WNW 13.9 mph 19.6 mph 32 % 0.00 in 912.0 W/m2 CLR
11:59 50.0 °F 22.7 °F 29.91 in NNW 11.1 mph 18.0 mph 34 % 0.00 in 918.0 W/m2 CLR
12:04 50.6 °F 22.5 °F 29.91 in WNW 6.6 mph 13.8 mph 33 % 0.00 in 919.0 W/m2 CLR
12:09 50.5 °F 22.4 °F 29.91 in WNW 6.8 mph 11.5 mph 33 % 0.00 in 925.0 W/m2 CLR
12:14 50.8 °F 24.1 °F 29.92 in NW 10.6 mph 15.0 mph 35 % 0.00 in 930.0 W/m2 CLR
12:19 51.2 °F 23.8 °F 29.92 in WNW 10.6 mph 15.0 mph 34 % 0.00 in 933.0 W/m2 CLR
12:24 51.0 °F 23.6 °F 29.91 in NW 10.9 mph 18.4 mph 34 % 0.00 in 935.0 W/m2 CLR
12:25 51.2 °F 23.8 °F 29.92 in WNW 7.9 mph 13.8 mph 34 % 0.00 in 935.0 W/m2 CLR
12:30 51.3 °F 21.6 °F 29.92 in WNW 12.3 mph 16.1 mph 31 % 0.00 in 940.0 W/m2 CLR
12:35 51.9 °F 22.9 °F 29.91 in NW 9.9 mph 19.6 mph 32 % 0.00 in 940.0 W/m2 CLR
12:40 51.7 °F 22.0 °F 29.91 in West 13.8 mph 19.6 mph 31 % 0.00 in 942.0 W/m2 CLR
12:45 51.5 °F 21.0 °F 29.91 in West 8.4 mph 17.0 mph 30 % 0.00 in 944.0 W/m2 CLR
12:50 51.7 °F 22.0 °F 29.91 in WNW 12.7 mph 16.1 mph 31 % 0.00 in 946.0 W/m2 CLR
12:55 52.3 °F 22.5 °F 29.91 in WNW 8.8 mph 17.3 mph 31 % 0.00 in 946.0 W/m2 CLR
13:00 52.6 °F 22.0 °F 29.92 in NW 6.5 mph 15.0 mph 30 % 0.00 in 949.0 W/m2 CLR
13:05 52.6 °F 21.2 °F 29.91 in WNW 11.5 mph 18.4 mph 29 % 0.00 in 949.0 W/m2 CLR
13:10 53.4 °F 22.7 °F 29.91 in WSW 7.8 mph 12.0 mph 30 % 0.00 in 946.0 W/m2 CLR
13:15 53.5 °F 22.0 °F 29.91 in West 12.1 mph 20.0 mph 29 % 0.00 in 944.0 W/m2 CLR
13:20 52.7 °F 21.3 °F 29.91 in NW 10.9 mph 16.1 mph 29 % 0.00 in 942.0 W/m2 CLR
13:25 52.8 °F 20.5 °F 29.91 in WNW 13.5 mph 19.6 mph 28 % 0.00 in 940.0 W/m2 CLR
13:30 53.8 °F 23.1 °F 29.91 in NW 5.2 mph 13.8 mph 30 % 0.00 in 937.0 W/m2 CLR
13:35 54.2 °F 22.6 °F 29.91 in WNW 10.2 mph 12.7 mph 29 % 0.00 in 939.0 W/m2 CLR
13:40 54.2 °F 20.9 °F 29.91 in WNW 12.5 mph 20.7 mph 27 % 0.00 in 933.0 W/m2 CLR
13:45 54.0 °F 20.7 °F 29.91 in West 14.0 mph 19.6 mph 27 % 0.00 in 933.0 W/m2 CLR
13:50 55.9 °F 23.2 °F 29.91 in WNW 11.1 mph 17.3 mph 28 % 0.00 in 946.0 W/m2 CLR
13:55 55.8 °F 22.3 °F 29.91 in WNW 13.1 mph 23.0 mph 27 % 0.00 in 856.0 W/m2 CLR
14:00 55.3 °F 22.7 °F 29.91 in West 12.8 mph 18.4 mph 28 % 0.00 in 889.0 W/m2 CLR
14:05 54.4 °F 20.2 °F 29.91 in NW 11.8 mph 16.1 mph 26 % 0.00 in 893.0 W/m2 CLR
14:10 54.7 °F 21.3 °F 29.91 in West 16.4 mph 25.3 mph 27 % 0.00 in 930.0 W/m2 CLR
14:15 55.5 °F 21.1 °F 29.91 in West 10.3 mph 13.0 mph 26 % 0.00 in 919.0 W/m2 CLR
14:20 55.3 °F 20.0 °F 29.90 in WNW 18.5 mph 26.5 mph 25 % 0.00 in 893.0 W/m2 CLR
14:25 56.0 °F 20.6 °F 29.90 in NW 18.0 mph 21.9 mph 25 % 0.00 in 884.0 W/m2 CLR
14:31 56.4 °F 21.9 °F 29.90 in NW 12.1 mph 19.6 mph 26 % 0.00 in 842.0 W/m2 CLR
14:36 56.8 °F 20.3 °F 29.90 in WNW 9.8 mph 11.5 mph 24 % 0.00 in 874.0 W/m2 CLR
14:41 57.1 °F 22.5 °F 29.90 in North 8.9 mph 15.0 mph 26 % 0.00 in 840.0 W/m2 CLR
14:46 56.4 °F 19.0 °F 29.90 in WSW 8.8 mph 21.9 mph 23 % 0.00 in 788.0 W/m2 CLR
14:51 56.0 °F 19.7 °F 29.89 in NW 10.5 mph 12.7 mph 24 % 0.00 in 830.0 W/m2 CLR
14:56 56.8 °F 22.2 °F 29.89 in WNW 9.5 mph 13.8 mph 26 % 0.00 in 817.0 W/m2 CLR
15:01 56.5 °F 19.1 °F 29.89 in WNW 6.6 mph 15.0 mph 23 % 0.00 in 831.0 W/m2 CLR
15:06 57.0 °F 19.5 °F 29.89 in WNW 11.2 mph 19.6 mph 23 % 0.00 in 800.0 W/m2 CLR
15:11 57.1 °F 19.6 °F 29.89 in West 12.5 mph 19.6 mph 23 % 0.00 in 802.0 W/m2 CLR
15:16 57.3 °F 19.8 °F 29.89 in WNW 11.5 mph 17.3 mph 23 % 0.00 in 796.0 W/m2 CLR
15:21 57.4 °F 20.9 °F 29.89 in NW 15.0 mph 20.7 mph 24 % 0.00 in 828.0 W/m2 CLR
15:26 57.9 °F 21.3 °F 29.89 in NW 9.8 mph 13.8 mph 24 % 0.00 in 719.0 W/m2 CLR
15:31 57.3 °F 19.8 °F 29.89 in WSW 13.1 mph 19.6 mph 23 % 0.00 in 543.0 W/m2 CLR
15:36 57.0 °F 21.5 °F 29.89 in NW 12.7 mph 19.6 mph 25 % 0.00 in 615.0 W/m2 CLR
15:41 57.6 °F 20.0 °F 29.89 in WNW 9.5 mph 15.0 mph 23 % 0.00 in 577.0 W/m2 CLR
15:46 57.7 °F 21.1 °F 29.89 in West 9.4 mph 16.1 mph 24 % 0.00 in 749.0 W/m2 CLR
15:51 57.6 °F 19.0 °F 29.89 in NW 18.0 mph 23.0 mph 22 % 0.00 in 751.0 W/m2 CLR
15:56 58.3 °F 21.6 °F 29.89 in West 9.6 mph 16.1 mph 24 % 0.00 in 717.0 W/m2 CLR
16:01 59.1 °F 21.3 °F 29.89 in NW 10.3 mph 13.8 mph 23 % 0.00 in 629.0 W/m2 CLR
16:06 58.5 °F 18.6 °F 29.89 in WNW 10.0 mph 14.0 mph 21 % 0.00 in 584.0 W/m2 CLR
16:11 58.5 °F 18.6 °F 29.89 in NW 6.8 mph 13.8 mph 21 % 0.00 in 606.0 W/m2 CLR
16:16 58.4 °F 19.7 °F 29.90 in NNW 13.1 mph 18.0 mph 22 % 0.00 in 598.0 W/m2 CLR
16:18 58.5 °F 20.8 °F 29.89 in NW 9.9 mph 19.6 mph 23 % 0.00 in 568.0 W/m2 CLR
16:23 58.8 °F 21.0 °F 29.90 in NW 11.3 mph 15.0 mph 23 % 0.00 in 615.0 W/m2 CLR
16:28 58.2 °F 18.4 °F 29.90 in NW 10.9 mph 17.3 mph 21 % 0.00 in 603.0 W/m2 CLR
16:33 58.2 °F 18.4 °F 29.90 in WNW 9.6 mph 14.0 mph 21 % 0.00 in 515.0 W/m2 CLR
16:38 58.4 °F 19.7 °F 29.90 in NW 15.5 mph 25.3 mph 22 % 0.00 in 464.0 W/m2 CLR
16:43 57.8 °F 19.1 °F 29.90 in NNW 12.9 mph 21.9 mph 22 % 0.00 in 459.0 W/m2 CLR
16:48 58.1 °F 20.4 °F 29.90 in WNW 11.2 mph 16.1 mph 23 % 0.00 in 392.0 W/m2 CLR
16:53 58.0 °F 21.4 °F 29.90 in NW 9.9 mph 19.6 mph 24 % 0.00 in 313.0 W/m2 CLR
16:54 58.0 °F 21.4 °F 29.90 in NW 11.6 mph 18.0 mph 24 % 0.00 in 343.0 W/m2 FEW
16:59 57.9 °F 18.1 °F 29.90 in NNW 9.1 mph 15.0 mph 21 % 0.00 in 279.0 W/m2 FEW
17:04 57.5 °F 17.8 °F 29.90 in WNW 11.3 mph 16.1 mph 21 % 0.00 in 352.0 W/m2 CLR
17:06 57.4 °F 16.6 °F 29.90 in NW 14.6 mph 19.6 mph 20 % 0.00 in 359.0 W/m2 CLR
17:11 57.4 °F 17.7 °F 29.90 in WNW 11.5 mph 19.0 mph 21 % 0.00 in 381.0 W/m2 SCT
17:16 57.6 °F 19.0 °F 29.90 in West 10.3 mph 17.3 mph 22 % 0.00 in 367.0 W/m2 CLR
17:21 57.6 °F 16.8 °F 29.90 in WNW 12.2 mph 21.9 mph 20 % 0.00 in 457.0 W/m2 CLR
17:26 58.0 °F 17.1 °F 29.90 in WNW 12.7 mph 17.3 mph 20 % 0.00 in 445.0 W/m2 CLR
17:31 58.3 °F 17.3 °F 29.90 in West 10.8 mph 15.0 mph 20 % 0.00 in 420.0 W/m2 CLR
17:36 58.4 °F 17.4 °F 29.90 in WNW 9.7 mph 16.1 mph 20 % 0.00 in 403.0 W/m2 CLR
17:41 58.4 °F 17.4 °F 29.90 in NW 15.3 mph 18.4 mph 20 % 0.00 in 327.0 W/m2 CLR
17:46 58.0 °F 18.2 °F 29.90 in NNW 12.5 mph 19.6 mph 21 % 0.00 in 295.0 W/m2 CLR
17:51 57.9 °F 19.2 °F 29.90 in NW 6.7 mph 15.0 mph 22 % 0.00 in 311.0 W/m2 CLR
17:56 58.1 °F 17.2 °F 29.90 in NNW 10.9 mph 16.1 mph 20 % 0.00 in 288.0 W/m2 CLR
18:01 58.1 °F 17.2 °F 29.90 in WNW 9.5 mph 17.3 mph 20 % 0.00 in 283.0 W/m2 CLR
18:06 58.0 °F 18.2 °F 29.90 in NW 7.0 mph 10.4 mph 21 % 0.00 in 200.0 W/m2 CLR
18:12 58.0 °F 18.2 °F 29.91 in NW 13.5 mph 19.6 mph 21 % 0.00 in 202.0 W/m2 CLR
18:17 57.3 °F 17.6 °F 29.91 in WNW 13.8 mph 17.3 mph 21 % 0.00 in 146.0 W/m2 FEW
18:22 57.0 °F 18.5 °F 29.91 in WNW 7.9 mph 11.5 mph 22 % 0.00 in 178.0 W/m2 CLR
18:27 57.3 °F 17.6 °F 29.91 in West 9.3 mph 11.5 mph 21 % 0.00 in 148.0 W/m2 CLR
18:32 57.4 °F 17.7 °F 29.92 in NNW 9.7 mph 13.8 mph 21 % 0.00 in 121.0 W/m2 CLR
18:37 57.2 °F 16.4 °F 29.92 in WNW 11.4 mph 13.8 mph 20 % 0.00 in 98.0 W/m2 FEW
18:42 57.1 °F 17.5 °F 29.92 in NW 5.3 mph 11.5 mph 21 % 0.00 in 83.0 W/m2 FEW
18:47 56.9 °F 16.2 °F 29.92 in NW 12.5 mph 19.6 mph 20 % 0.00 in 63.0 W/m2 SCT
18:52 56.4 °F 15.8 °F 29.92 in WNW 11.3 mph 18.4 mph 20 % 0.00 in 47.0 W/m2 SCT
18:57 56.2 °F 16.7 °F 29.92 in NW 10.1 mph 17.3 mph 21 % 0.00 in 35.0 W/m2 BKN
19:02 55.9 °F 16.5 °F 29.93 in NNW 8.7 mph 15.0 mph 21 % 0.00 in 23.0 W/m2 BKN
19:07 55.7 °F 16.3 °F 29.93 in WNW 8.4 mph 15.0 mph 21 % 0.00 in 19.0 W/m2 BKN
19:12 55.6 °F 16.2 °F 29.93 in NNW 8.0 mph 12.7 mph 21 % 0.00 in 16.0 W/m2 BKN
19:17 55.3 °F 17.0 °F 29.93 in NNW 6.2 mph 11.5 mph 22 % 0.00 in 14.0 W/m2 BKN
19:22 55.0 °F 16.8 °F 29.93 in WNW 10.0 mph 13.8 mph 22 % 0.00 in 11.0 W/m2 BKN
19:27 54.9 °F 16.7 °F 29.93 in WNW 5.0 mph 9.2 mph 22 % 0.00 in 7.0 W/m2 SCT
19:32 54.8 °F 16.6 °F 29.93 in NW 5.6 mph 9.2 mph 22 % 0.00 in 5.0 W/m2 SCT
19:37 54.4 °F 17.3 °F 29.94 in WNW 3.5 mph 4.6 mph 23 % 0.00 in 0.0 W/m2 SCT
19:42 54.2 °F 17.1 °F 29.94 in WNW 5.2 mph 8.1 mph 23 % 0.00 in 0.0 W/m2 SCT
19:47 54.1 °F 17.1 °F 29.94 in WNW 7.1 mph 9.2 mph 23 % 0.00 in 0.0 W/m2 SCT
19:52 54.0 °F 17.0 °F 29.94 in WNW 8.1 mph 13.8 mph 23 % 0.00 in 0.0 W/m2 SCT
19:57 53.6 °F 17.6 °F 29.94 in WNW 4.4 mph 8.1 mph 24 % 0.00 in 0.0 W/m2 SCT
20:02 53.3 °F 18.3 °F 29.95 in WNW 5.4 mph 10.4 mph 25 % 0.00 in 0.0 W/m2 SCT
20:07 53.0 °F 18.1 °F 29.95 in NW 3.9 mph 8.1 mph 25 % 0.00 in 0.0 W/m2 SCT
20:12 52.8 °F 17.9 °F 29.95 in NW 1.5 mph 3.5 mph 25 % 0.00 in 0.0 W/m2 SCT
20:17 52.5 °F 18.6 °F 29.96 in WNW 1.5 mph 3.5 mph 26 % 0.00 in 0.0 W/m2 SCT
20:22 52.0 °F 18.1 °F 29.96 in NW 0.8 mph 5.0 mph 26 % 0.00 in 0.0 W/m2 SCT
20:27 51.6 °F 18.7 °F 29.96 in NW 0.7 mph 3.5 mph 27 % 0.00 in 0.0 W/m2 SCT
20:32 51.4 °F 18.5 °F 29.96 in WNW 1.3 mph 3.5 mph 27 % 0.00 in 0.0 W/m2 SCT
20:37 51.3 °F 18.4 °F 29.97 in WNW 0.5 mph 2.3 mph 27 % 0.00 in 0.0 W/m2 SCT
20:42 50.9 °F 18.9 °F 29.97 in WNW 0.8 mph 3.0 mph 28 % 0.00 in 0.0 W/m2 SCT
20:47 51.0 °F 19.0 °F 29.97 in WNW 0.6 mph 2.3 mph 28 % 0.00 in 0.0 W/m2 SCT
20:52 50.8 °F 18.8 °F 29.98 in Calm     28 % 0.00 in 0.0 W/m2 SCT
20:57 50.6 °F 19.5 °F 29.98 in Calm     29 % 0.00 in 0.0 W/m2 SCT
21:02 50.1 °F 19.0 °F 29.98 in Calm     29 % 0.00 in 0.0 W/m2 SCT
21:07 49.8 °F 20.3 °F 29.99 in Calm     31 % 0.00 in 0.0 W/m2 SCT
21:12 49.2 °F 19.8 °F 29.99 in Calm     31 % 0.00 in 0.0 W/m2 SCT
21:17 49.2 °F 20.6 °F 29.99 in Calm     32 % 0.00 in 0.0 W/m2 SCT
21:22 48.6 °F 22.1 °F 30.00 in Calm     35 % 0.00 in 0.0 W/m2 SCT
21:27 47.9 °F 22.2 °F 30.00 in Calm     36 % 0.00 in 0.0 W/m2 SCT
21:32 47.4 °F 22.4 °F 30.00 in Calm     37 % 0.00 in 0.0 W/m2 SCT
21:37 47.0 °F 22.0 °F 30.00 in Calm     37 % 0.00 in 0.0 W/m2 SCT
21:42 46.7 °F 24.2 °F 30.00 in Calm     41 % 0.00 in 0.0 W/m2 SCT
21:47 46.2 °F 22.6 °F 30.01 in Calm     39 % 0.00 in 0.0 W/m2 SCT
21:52 45.9 °F 22.9 °F 30.01 in Calm     40 % 0.00 in 0.0 W/m2 SCT
21:57 45.8 °F 23.4 °F 30.01 in Calm     41 % 0.00 in 0.0 W/m2 SCT
22:02 45.6 °F 23.8 °F 30.02 in Calm     42 % 0.00 in 0.0 W/m2 SCT
22:07 45.4 °F 23.0 °F 30.02 in Calm     41 % 0.00 in 0.0 W/m2 SCT
22:12 45.3 °F 22.4 °F 30.02 in Calm     40 % 0.00 in 0.0 W/m2 SCT
22:17 45.8 °F 23.4 °F 30.02 in Calm     41 % 0.00 in 0.0 W/m2 SCT
22:22 45.9 °F 22.9 °F 30.02 in Calm     40 % 0.00 in 0.0 W/m2 SCT
22:27 45.9 °F 22.9 °F 30.02 in Calm     40 % 0.00 in 0.0 W/m2 SCT
22:32 45.8 °F 22.8 °F 30.03 in Calm     40 % 0.00 in 0.0 W/m2 SCT
22:37 45.4 °F 22.5 °F 30.03 in Calm     40 % 0.00 in 0.0 W/m2 SCT
22:43 45.7 °F 23.3 °F 30.03 in Calm     41 % 0.00 in 0.0 W/m2 SCT
22:48 45.2 °F 22.9 °F 30.03 in Calm     41 % 0.00 in 0.0 W/m2 SCT
22:53 44.8 °F 22.5 °F 30.03 in Calm     41 % 0.00 in 0.0 W/m2 SCT
22:58 44.2 °F 23.1 °F 30.03 in Calm     43 % 0.00 in 0.0 W/m2 SCT
23:03 43.9 °F 23.9 °F 30.03 in Calm     45 % 0.00 in 0.0 W/m2 SCT
23:08 44.1 °F 22.4 °F 30.04 in Calm     42 % 0.00 in 0.0 W/m2 SCT
23:13 44.6 °F 24.0 °F 30.04 in Calm     44 % 0.00 in 0.0 W/m2 SCT
23:18 44.0 °F 23.5 °F 30.04 in Calm     44 % 0.00 in 0.0 W/m2 SCT
23:23 43.0 °F 24.1 °F 30.04 in Calm     47 % 0.00 in 0.0 W/m2 SCT
23:28 42.8 °F 23.9 °F 30.04 in Calm     47 % 0.00 in 0.0 W/m2 SCT
23:30 42.7 °F 24.8 °F 30.04 in Calm     49 % 0.00 in 0.0 W/m2 SCT
23:35 42.5 °F 23.7 °F 30.05 in Calm   2.3 mph 47 % 0.00 in 0.0 W/m2 SCT
23:40 42.7 °F 23.8 °F 30.05 in Calm     47 % 0.00 in 0.0 W/m2 SCT
23:45 42.6 °F 24.3 °F 30.05 in Calm     48 % 0.00 in 0.0 W/m2 SCT
23:50 41.3 °F 26.3 °F 30.05 in Calm     55 % 0.00 in 0.0 W/m2 SCT
23:55 40.3 °F 25.8 °F 30.05 in Calm     56 % 0.00 in 0.0 W/m2 SCT
Air Products Campus Weather
Compliments of Weather Underground - 3.5 mb